sensor_id;sensor_type;location;lat;lon;timestamp;temperature;humidity
23291;DHT22;11814;44.686;10.842;2023-04-07T00:01:25;8.50;68.50
23291;DHT22;11814;44.686;10.842;2023-04-07T00:03:51;8.50;68.50
23291;DHT22;11814;44.686;10.842;2023-04-07T00:06:17;8.50;68.40
23291;DHT22;11814;44.686;10.842;2023-04-07T00:08:43;8.50;68.40
23291;DHT22;11814;44.686;10.842;2023-04-07T00:11:08;8.50;68.40
23291;DHT22;11814;44.686;10.842;2023-04-07T00:13:34;8.60;68.50
23291;DHT22;11814;44.686;10.842;2023-04-07T00:16:00;8.50;68.50
23291;DHT22;11814;44.686;10.842;2023-04-07T00:18:26;8.50;68.60
23291;DHT22;11814;44.686;10.842;2023-04-07T00:20:51;8.50;68.70
23291;DHT22;11814;44.686;10.842;2023-04-07T00:23:17;8.50;68.80
23291;DHT22;11814;44.686;10.842;2023-04-07T00:25:44;8.60;68.90
23291;DHT22;11814;44.686;10.842;2023-04-07T00:28:12;8.50;68.90
23291;DHT22;11814;44.686;10.842;2023-04-07T00:30:37;8.50;69.10
23291;DHT22;11814;44.686;10.842;2023-04-07T00:33:03;8.50;69.20
23291;DHT22;11814;44.686;10.842;2023-04-07T00:35:29;8.50;69.30
23291;DHT22;11814;44.686;10.842;2023-04-07T00:37:55;8.50;69.50
23291;DHT22;11814;44.686;10.842;2023-04-07T00:40:21;8.40;69.60
23291;DHT22;11814;44.686;10.842;2023-04-07T00:42:47;8.40;69.70
23291;DHT22;11814;44.686;10.842;2023-04-07T00:45:13;8.30;69.80
23291;DHT22;11814;44.686;10.842;2023-04-07T00:47:38;8.30;69.90
23291;DHT22;11814;44.686;10.842;2023-04-07T00:50:05;8.30;70.00
23291;DHT22;11814;44.686;10.842;2023-04-07T00:52:32;8.20;70.10
23291;DHT22;11814;44.686;10.842;2023-04-07T00:54:59;8.20;70.30
23291;DHT22;11814;44.686;10.842;2023-04-07T00:57:24;8.20;70.40
23291;DHT22;11814;44.686;10.842;2023-04-07T00:59:51;8.20;70.60
23291;DHT22;11814;44.686;10.842;2023-04-07T01:02:21;8.10;70.70
23291;DHT22;11814;44.686;10.842;2023-04-07T01:04:58;8.10;70.80
23291;DHT22;11814;44.686;10.842;2023-04-07T01:07:38;8.10;70.90
23291;DHT22;11814;44.686;10.842;2023-04-07T01:10:05;8.10;70.90
23291;DHT22;11814;44.686;10.842;2023-04-07T01:12:41;8.10;70.90
23291;DHT22;11814;44.686;10.842;2023-04-07T01:15:11;8.10;70.80
23291;DHT22;11814;44.686;10.842;2023-04-07T01:17:42;8.10;70.80
23291;DHT22;11814;44.686;10.842;2023-04-07T01:20:15;8.00;71.70
23291;DHT22;11814;44.686;10.842;2023-04-07T01:22:42;7.90;71.20
23291;DHT22;11814;44.686;10.842;2023-04-07T01:28:03;7.70;71.70
23291;DHT22;11814;44.686;10.842;2023-04-07T01:30:37;7.80;71.90
23291;DHT22;11814;44.686;10.842;2023-04-07T01:33:04;7.80;71.90
23291;DHT22;11814;44.686;10.842;2023-04-07T01:35:33;7.80;72.00
23291;DHT22;11814;44.686;10.842;2023-04-07T01:38:00;7.80;72.10
23291;DHT22;11814;44.686;10.842;2023-04-07T01:40:28;7.80;72.20
23291;DHT22;11814;44.686;10.842;2023-04-07T01:42:55;7.80;73.10
23291;DHT22;11814;44.686;10.842;2023-04-07T01:45:21;7.80;72.60
23291;DHT22;11814;44.686;10.842;2023-04-07T01:47:48;7.80;72.70
23291;DHT22;11814;44.686;10.842;2023-04-07T01:50:15;7.80;72.80
23291;DHT22;11814;44.686;10.842;2023-04-07T01:52:41;7.70;73.10
23291;DHT22;11814;44.686;10.842;2023-04-07T01:55:08;7.70;73.40
23291;DHT22;11814;44.686;10.842;2023-04-07T01:57:34;7.70;73.40
23291;DHT22;11814;44.686;10.842;2023-04-07T02:00:00;7.70;73.40
23291;DHT22;11814;44.686;10.842;2023-04-07T02:02:27;7.70;73.40
23291;DHT22;11814;44.686;10.842;2023-04-07T02:05:03;7.80;73.20
23291;DHT22;11814;44.686;10.842;2023-04-07T02:10:17;7.80;72.60
23291;DHT22;11814;44.686;10.842;2023-04-07T02:12:45;7.80;72.60
23291;DHT22;11814;44.686;10.842;2023-04-07T02:15:12;7.80;72.60
23291;DHT22;11814;44.686;10.842;2023-04-07T02:17:40;7.70;72.70
23291;DHT22;11814;44.686;10.842;2023-04-07T02:20:08;7.70;72.90
23291;DHT22;11814;44.686;10.842;2023-04-07T02:22:35;7.60;73.20
23291;DHT22;11814;44.686;10.842;2023-04-07T02:25:02;7.60;73.30
23291;DHT22;11814;44.686;10.842;2023-04-07T02:27:27;7.60;73.40
23291;DHT22;11814;44.686;10.842;2023-04-07T02:29:53;7.50;73.40
23291;DHT22;11814;44.686;10.842;2023-04-07T02:32:19;7.50;73.40
23291;DHT22;11814;44.686;10.842;2023-04-07T02:34:45;7.50;73.40
23291;DHT22;11814;44.686;10.842;2023-04-07T02:37:11;7.50;73.50
23291;DHT22;11814;44.686;10.842;2023-04-07T02:39:36;7.50;73.60
23291;DHT22;11814;44.686;10.842;2023-04-07T02:42:02;7.40;73.70
23291;DHT22;11814;44.686;10.842;2023-04-07T02:44:28;7.30;74.00
23291;DHT22;11814;44.686;10.842;2023-04-07T02:46:54;7.20;74.20
23291;DHT22;11814;44.686;10.842;2023-04-07T02:49:19;7.20;74.50
23291;DHT22;11814;44.686;10.842;2023-04-07T02:51:45;7.10;74.70
23291;DHT22;11814;44.686;10.842;2023-04-07T02:54:11;7.10;75.10
23291;DHT22;11814;44.686;10.842;2023-04-07T02:56:37;7.10;75.30
23291;DHT22;11814;44.686;10.842;2023-04-07T02:59:02;7.00;76.20
23291;DHT22;11814;44.686;10.842;2023-04-07T03:01:28;7.00;75.60
23291;DHT22;11814;44.686;10.842;2023-04-07T03:03:54;6.90;75.70
23291;DHT22;11814;44.686;10.842;2023-04-07T03:06:20;6.90;76.00
23291;DHT22;11814;44.686;10.842;2023-04-07T03:08:45;6.90;76.20
23291;DHT22;11814;44.686;10.842;2023-04-07T03:11:11;6.90;76.30
23291;DHT22;11814;44.686;10.842;2023-04-07T03:13:37;6.90;76.50
23291;DHT22;11814;44.686;10.842;2023-04-07T03:16:03;6.90;76.50
23291;DHT22;11814;44.686;10.842;2023-04-07T03:18:28;6.80;76.60
23291;DHT22;11814;44.686;10.842;2023-04-07T03:20:54;6.70;76.70
23291;DHT22;11814;44.686;10.842;2023-04-07T03:23:20;6.70;76.80
23291;DHT22;11814;44.686;10.842;2023-04-07T03:25:48;6.70;77.00
23291;DHT22;11814;44.686;10.842;2023-04-07T03:28:14;6.60;77.20
23291;DHT22;11814;44.686;10.842;2023-04-07T03:30:40;6.60;77.40
23291;DHT22;11814;44.686;10.842;2023-04-07T03:33:05;6.60;77.50
23291;DHT22;11814;44.686;10.842;2023-04-07T03:35:31;6.60;77.80
23291;DHT22;11814;44.686;10.842;2023-04-07T03:37:57;6.50;77.60
23291;DHT22;11814;44.686;10.842;2023-04-07T03:40:23;6.40;78.00
23291;DHT22;11814;44.686;10.842;2023-04-07T03:42:50;6.40;78.30
23291;DHT22;11814;44.686;10.842;2023-04-07T03:45:16;6.40;78.60
23291;DHT22;11814;44.686;10.842;2023-04-07T03:47:41;6.50;78.70
23291;DHT22;11814;44.686;10.842;2023-04-07T03:50:07;6.50;78.60
23291;DHT22;11814;44.686;10.842;2023-04-07T03:52:33;6.50;79.30
23291;DHT22;11814;44.686;10.842;2023-04-07T03:54:59;6.50;78.50
23291;DHT22;11814;44.686;10.842;2023-04-07T03:57:25;6.40;78.50
23291;DHT22;11814;44.686;10.842;2023-04-07T03:59:51;6.40;78.80
23291;DHT22;11814;44.686;10.842;2023-04-07T04:02:17;6.40;78.90
23291;DHT22;11814;44.686;10.842;2023-04-07T04:04:43;6.40;78.90
23291;DHT22;11814;44.686;10.842;2023-04-07T04:07:09;6.30;78.90
23291;DHT22;11814;44.686;10.842;2023-04-07T04:09:35;6.30;79.00
23291;DHT22;11814;44.686;10.842;2023-04-07T04:12:01;6.30;79.20
23291;DHT22;11814;44.686;10.842;2023-04-07T04:14:26;6.30;79.30
23291;DHT22;11814;44.686;10.842;2023-04-07T04:16:53;6.20;79.10
23291;DHT22;11814;44.686;10.842;2023-04-07T04:19:19;6.20;79.30
23291;DHT22;11814;44.686;10.842;2023-04-07T04:21:44;6.10;79.60
23291;DHT22;11814;44.686;10.842;2023-04-07T04:24:10;6.20;80.10
23291;DHT22;11814;44.686;10.842;2023-04-07T04:26:36;6.20;80.10
23291;DHT22;11814;44.686;10.842;2023-04-07T04:29:02;6.20;80.00
23291;DHT22;11814;44.686;10.842;2023-04-07T04:31:28;6.20;80.00
23291;DHT22;11814;44.686;10.842;2023-04-07T04:33:53;6.20;80.00
23291;DHT22;11814;44.686;10.842;2023-04-07T04:36:19;6.10;79.90
23291;DHT22;11814;44.686;10.842;2023-04-07T04:38:45;6.00;80.10
23291;DHT22;11814;44.686;10.842;2023-04-07T04:41:11;6.00;80.40
23291;DHT22;11814;44.686;10.842;2023-04-07T04:43:36;6.00;80.60
23291;DHT22;11814;44.686;10.842;2023-04-07T04:46:02;6.00;80.80
23291;DHT22;11814;44.686;10.842;2023-04-07T04:48:28;6.00;80.90
23291;DHT22;11814;44.686;10.842;2023-04-07T04:50:54;6.00;81.20
23291;DHT22;11814;44.686;10.842;2023-04-07T04:53:19;6.10;81.30
23291;DHT22;11814;44.686;10.842;2023-04-07T04:55:45;6.10;81.20
23291;DHT22;11814;44.686;10.842;2023-04-07T04:58:19;6.00;81.00
23291;DHT22;11814;44.686;10.842;2023-04-07T05:00:45;6.00;81.20
23291;DHT22;11814;44.686;10.842;2023-04-07T05:03:11;5.90;81.30
23291;DHT22;11814;44.686;10.842;2023-04-07T05:05:37;5.90;81.30
23291;DHT22;11814;44.686;10.842;2023-04-07T05:08:03;5.90;81.40
23291;DHT22;11814;44.686;10.842;2023-04-07T05:10:29;5.80;81.30
23291;DHT22;11814;44.686;10.842;2023-04-07T05:12:54;5.70;81.40
23291;DHT22;11814;44.686;10.842;2023-04-07T05:15:20;5.70;81.80
23291;DHT22;11814;44.686;10.842;2023-04-07T05:17:46;5.70;81.80
23291;DHT22;11814;44.686;10.842;2023-04-07T05:20:15;5.70;81.80
23291;DHT22;11814;44.686;10.842;2023-04-07T05:22:41;5.70;81.90
23291;DHT22;11814;44.686;10.842;2023-04-07T05:25:07;5.80;82.10
23291;DHT22;11814;44.686;10.842;2023-04-07T05:27:33;5.80;82.10
23291;DHT22;11814;44.686;10.842;2023-04-07T05:29:59;5.90;82.10
23291;DHT22;11814;44.686;10.842;2023-04-07T05:32:26;6.00;82.10
23291;DHT22;11814;44.686;10.842;2023-04-07T05:34:52;6.30;82.00
23291;DHT22;11814;44.686;10.842;2023-04-07T05:37:18;6.60;81.70
23291;DHT22;11814;44.686;10.842;2023-04-07T05:39:43;6.90;81.20
23291;DHT22;11814;44.686;10.842;2023-04-07T05:42:09;7.30;80.60
23291;DHT22;11814;44.686;10.842;2023-04-07T05:44:35;7.50;79.70
23291;DHT22;11814;44.686;10.842;2023-04-07T05:47:01;7.70;79.00
23291;DHT22;11814;44.686;10.842;2023-04-07T05:49:30;7.70;78.50
23291;DHT22;11814;44.686;10.842;2023-04-07T05:51:56;7.70;78.40
23291;DHT22;11814;44.686;10.842;2023-04-07T05:54:21;7.70;78.30
23291;DHT22;11814;44.686;10.842;2023-04-07T05:56:47;7.70;78.30
23291;DHT22;11814;44.686;10.842;2023-04-07T05:59:13;7.80;78.50
23291;DHT22;11814;44.686;10.842;2023-04-07T06:01:38;7.90;78.30
23291;DHT22;11814;44.686;10.842;2023-04-07T06:04:04;8.10;78.10
23291;DHT22;11814;44.686;10.842;2023-04-07T06:06:30;8.30;77.90
23291;DHT22;11814;44.686;10.842;2023-04-07T06:08:56;8.40;77.80
23291;DHT22;11814;44.686;10.842;2023-04-07T06:11:21;8.60;77.60
23291;DHT22;11814;44.686;10.842;2023-04-07T06:13:47;9.10;77.60
23291;DHT22;11814;44.686;10.842;2023-04-07T06:16:13;9.60;77.20
23291;DHT22;11814;44.686;10.842;2023-04-07T06:18:39;10.00;76.50
23291;DHT22;11814;44.686;10.842;2023-04-07T06:21:05;10.20;76.20
23291;DHT22;11814;44.686;10.842;2023-04-07T06:23:31;10.40;76.40
23291;DHT22;11814;44.686;10.842;2023-04-07T06:25:57;10.40;76.70
23291;DHT22;11814;44.686;10.842;2023-04-07T06:28:22;10.40;76.80
23291;DHT22;11814;44.686;10.842;2023-04-07T06:30:48;10.50;75.50
23291;DHT22;11814;44.686;10.842;2023-04-07T06:33:14;10.70;74.10
23291;DHT22;11814;44.686;10.842;2023-04-07T06:35:40;10.90;72.30
23291;DHT22;11814;44.686;10.842;2023-04-07T06:38:07;10.90;70.80
23291;DHT22;11814;44.686;10.842;2023-04-07T06:40:33;10.80;69.90
23291;DHT22;11814;44.686;10.842;2023-04-07T06:42:58;10.80;70.00
23291;DHT22;11814;44.686;10.842;2023-04-07T06:45:24;11.10;69.70
23291;DHT22;11814;44.686;10.842;2023-04-07T06:47:50;11.20;69.30
23291;DHT22;11814;44.686;10.842;2023-04-07T06:50:15;11.40;69.60
23291;DHT22;11814;44.686;10.842;2023-04-07T06:52:45;11.50;69.40
23291;DHT22;11814;44.686;10.842;2023-04-07T06:55:10;11.60;68.90
23291;DHT22;11814;44.686;10.842;2023-04-07T06:57:36;11.90;68.20
23291;DHT22;11814;44.686;10.842;2023-04-07T07:00:02;12.10;67.10
23291;DHT22;11814;44.686;10.842;2023-04-07T07:02:28;12.10;66.70
23291;DHT22;11814;44.686;10.842;2023-04-07T07:04:54;12.10;66.80
23291;DHT22;11814;44.686;10.842;2023-04-07T07:07:19;12.10;66.70
23291;DHT22;11814;44.686;10.842;2023-04-07T07:09:45;12.10;66.70
23291;DHT22;11814;44.686;10.842;2023-04-07T07:12:11;12.10;66.90
23291;DHT22;11814;44.686;10.842;2023-04-07T07:14:37;12.20;67.70
23291;DHT22;11814;44.686;10.842;2023-04-07T07:17:02;12.40;68.40
23291;DHT22;11814;44.686;10.842;2023-04-07T07:19:28;12.80;67.80
23291;DHT22;11814;44.686;10.842;2023-04-07T07:21:54;13.00;67.50
23291;DHT22;11814;44.686;10.842;2023-04-07T07:24:20;13.10;66.70
23291;DHT22;11814;44.686;10.842;2023-04-07T07:26:45;13.10;66.40
23291;DHT22;11814;44.686;10.842;2023-04-07T07:29:11;13.10;66.40
23291;DHT22;11814;44.686;10.842;2023-04-07T07:31:37;13.20;65.70
23291;DHT22;11814;44.686;10.842;2023-04-07T07:34:03;13.40;64.50
23291;DHT22;11814;44.686;10.842;2023-04-07T07:36:28;13.50;63.40
23291;DHT22;11814;44.686;10.842;2023-04-07T07:38:54;13.60;62.80
23291;DHT22;11814;44.686;10.842;2023-04-07T07:41:20;13.80;61.90
23291;DHT22;11814;44.686;10.842;2023-04-07T07:43:45;14.10;60.90
23291;DHT22;11814;44.686;10.842;2023-04-07T07:46:11;14.50;60.50
23291;DHT22;11814;44.686;10.842;2023-04-07T07:48:37;14.90;59.30
23291;DHT22;11814;44.686;10.842;2023-04-07T07:51:03;15.30;57.90
23291;DHT22;11814;44.686;10.842;2023-04-07T07:53:29;15.30;57.70
23291;DHT22;11814;44.686;10.842;2023-04-07T07:55:54;15.30;58.00
23291;DHT22;11814;44.686;10.842;2023-04-07T07:58:21;15.50;57.90
23291;DHT22;11814;44.686;10.842;2023-04-07T08:00:46;15.60;57.50
23291;DHT22;11814;44.686;10.842;2023-04-07T08:03:13;15.80;57.50
23291;DHT22;11814;44.686;10.842;2023-04-07T08:05:38;16.20;57.40
23291;DHT22;11814;44.686;10.842;2023-04-07T08:08:05;16.80;57.20
23291;DHT22;11814;44.686;10.842;2023-04-07T08:10:31;17.70;56.30
23291;DHT22;11814;44.686;10.842;2023-04-07T08:12:56;18.00;54.90
23291;DHT22;11814;44.686;10.842;2023-04-07T08:15:22;18.20;53.80
23291;DHT22;11814;44.686;10.842;2023-04-07T08:17:48;18.00;53.30
23291;DHT22;11814;44.686;10.842;2023-04-07T08:20:14;17.80;53.40
23291;DHT22;11814;44.686;10.842;2023-04-07T08:22:40;17.70;54.00
23291;DHT22;11814;44.686;10.842;2023-04-07T08:25:07;17.70;54.20
23291;DHT22;11814;44.686;10.842;2023-04-07T08:27:33;17.60;54.20
23291;DHT22;11814;44.686;10.842;2023-04-07T08:30:01;17.30;54.10
23291;DHT22;11814;44.686;10.842;2023-04-07T08:32:34;17.20;54.10
23291;DHT22;11814;44.686;10.842;2023-04-07T08:35:01;17.10;53.90
23291;DHT22;11814;44.686;10.842;2023-04-07T08:37:26;17.10;54.00
23291;DHT22;11814;44.686;10.842;2023-04-07T08:39:52;17.00;53.70
23291;DHT22;11814;44.686;10.842;2023-04-07T08:42:19;16.90;53.70
23291;DHT22;11814;44.686;10.842;2023-04-07T08:44:47;16.70;54.00
23291;DHT22;11814;44.686;10.842;2023-04-07T08:47:15;16.50;54.40
23291;DHT22;11814;44.686;10.842;2023-04-07T08:49:44;16.40;54.90
23291;DHT22;11814;44.686;10.842;2023-04-07T08:52:11;16.40;55.20
23291;DHT22;11814;44.686;10.842;2023-04-07T08:54:38;16.40;54.70
23291;DHT22;11814;44.686;10.842;2023-04-07T08:57:04;16.30;54.50
23291;DHT22;11814;44.686;10.842;2023-04-07T08:59:31;16.30;54.50
23291;DHT22;11814;44.686;10.842;2023-04-07T09:01:58;16.30;54.90
23291;DHT22;11814;44.686;10.842;2023-04-07T09:04:24;16.40;55.00
23291;DHT22;11814;44.686;10.842;2023-04-07T09:06:52;16.30;54.40
23291;DHT22;11814;44.686;10.842;2023-04-07T09:09:17;16.20;54.20
23291;DHT22;11814;44.686;10.842;2023-04-07T09:11:43;16.10;53.90
23291;DHT22;11814;44.686;10.842;2023-04-07T09:14:09;16.00;53.50
23291;DHT22;11814;44.686;10.842;2023-04-07T09:16:35;15.90;53.50
23291;DHT22;11814;44.686;10.842;2023-04-07T09:19:01;16.00;54.00
23291;DHT22;11814;44.686;10.842;2023-04-07T09:21:49;16.10;54.50
23291;DHT22;11814;44.686;10.842;2023-04-07T09:24:26;16.30;54.60
23291;DHT22;11814;44.686;10.842;2023-04-07T09:27:13;16.50;54.60
23291;DHT22;11814;44.686;10.842;2023-04-07T09:44:43;17.10;53.40
23291;DHT22;11814;44.686;10.842;2023-04-07T09:47:09;17.10;53.20
23291;DHT22;11814;44.686;10.842;2023-04-07T09:49:48;17.20;53.30
23291;DHT22;11814;44.686;10.842;2023-04-07T09:52:15;17.50;53.20
23291;DHT22;11814;44.686;10.842;2023-04-07T09:54:42;17.50;52.40
23291;DHT22;11814;44.686;10.842;2023-04-07T09:57:09;17.60;51.90
23291;DHT22;11814;44.686;10.842;2023-04-07T09:59:37;17.60;51.60
23291;DHT22;11814;44.686;10.842;2023-04-07T10:02:04;17.70;51.10
23291;DHT22;11814;44.686;10.842;2023-04-07T10:04:30;17.70;51.10
23291;DHT22;11814;44.686;10.842;2023-04-07T10:06:57;17.70;51.20
23291;DHT22;11814;44.686;10.842;2023-04-07T10:09:28;17.60;51.60
23291;DHT22;11814;44.686;10.842;2023-04-07T10:11:55;17.80;50.80
23291;DHT22;11814;44.686;10.842;2023-04-07T10:14:25;17.80;50.60
23291;DHT22;11814;44.686;10.842;2023-04-07T10:16:51;17.80;50.50
23291;DHT22;11814;44.686;10.842;2023-04-07T10:19:18;17.80;50.00
23291;DHT22;11814;44.686;10.842;2023-04-07T10:21:44;17.80;50.00
23291;DHT22;11814;44.686;10.842;2023-04-07T10:26:41;17.60;49.20
23291;DHT22;11814;44.686;10.842;2023-04-07T10:29:10;17.70;49.30
23291;DHT22;11814;44.686;10.842;2023-04-07T10:31:37;17.80;48.70
23291;DHT22;11814;44.686;10.842;2023-04-07T10:34:03;17.80;47.60
23291;DHT22;11814;44.686;10.842;2023-04-07T10:36:30;17.80;47.60
23291;DHT22;11814;44.686;10.842;2023-04-07T10:41:38;17.90;47.70
23291;DHT22;11814;44.686;10.842;2023-04-07T10:44:06;17.90;47.30
23291;DHT22;11814;44.686;10.842;2023-04-07T10:49:11;18.00;46.90
23291;DHT22;11814;44.686;10.842;2023-04-07T10:51:38;18.00;47.10
23291;DHT22;11814;44.686;10.842;2023-04-07T10:54:20;18.10;47.50
23291;DHT22;11814;44.686;10.842;2023-04-07T10:59:31;18.00;47.20
23291;DHT22;11814;44.686;10.842;2023-04-07T11:04:43;18.10;46.90
23291;DHT22;11814;44.686;10.842;2023-04-07T11:07:09;18.10;46.20
23291;DHT22;11814;44.686;10.842;2023-04-07T11:09:36;18.20;46.40
23291;DHT22;11814;44.686;10.842;2023-04-07T11:12:02;18.20;45.80
23291;DHT22;11814;44.686;10.842;2023-04-07T11:14:29;18.30;45.60
23291;DHT22;11814;44.686;10.842;2023-04-07T11:16:56;18.40;45.90
23291;DHT22;11814;44.686;10.842;2023-04-07T11:19:23;18.60;46.20
23291;DHT22;11814;44.686;10.842;2023-04-07T11:21:49;18.60;45.70
23291;DHT22;11814;44.686;10.842;2023-04-07T11:24:36;18.70;45.90
23291;DHT22;11814;44.686;10.842;2023-04-07T11:27:02;18.60;45.50
23291;DHT22;11814;44.686;10.842;2023-04-07T11:29:32;18.60;45.60
23291;DHT22;11814;44.686;10.842;2023-04-07T11:31:59;18.60;45.60
23291;DHT22;11814;44.686;10.842;2023-04-07T11:34:32;18.50;45.40
23291;DHT22;11814;44.686;10.842;2023-04-07T11:37:20;18.50;45.40
23291;DHT22;11814;44.686;10.842;2023-04-07T11:39:57;18.50;45.40
23291;DHT22;11814;44.686;10.842;2023-04-07T11:42:38;18.40;45.30
23291;DHT22;11814;44.686;10.842;2023-04-07T11:45:15;18.30;45.00
23291;DHT22;11814;44.686;10.842;2023-04-07T11:47:40;18.20;45.10
23291;DHT22;11814;44.686;10.842;2023-04-07T11:50:07;18.20;45.20
23291;DHT22;11814;44.686;10.842;2023-04-07T11:52:42;18.20;45.10
23291;DHT22;11814;44.686;10.842;2023-04-07T11:55:21;18.00;45.20
23291;DHT22;11814;44.686;10.842;2023-04-07T11:57:49;18.00;45.40
23291;DHT22;11814;44.686;10.842;2023-04-07T12:00:19;18.00;45.60
23291;DHT22;11814;44.686;10.842;2023-04-07T12:02:45;18.00;45.60
23291;DHT22;11814;44.686;10.842;2023-04-07T12:05:11;18.00;45.50
23291;DHT22;11814;44.686;10.842;2023-04-07T12:07:38;18.00;45.60
23291;DHT22;11814;44.686;10.842;2023-04-07T12:10:18;18.00;45.40
23291;DHT22;11814;44.686;10.842;2023-04-07T12:12:45;18.00;45.50
23291;DHT22;11814;44.686;10.842;2023-04-07T12:15:11;18.10;45.70
23291;DHT22;11814;44.686;10.842;2023-04-07T12:17:38;18.20;46.00
23291;DHT22;11814;44.686;10.842;2023-04-07T12:20:09;18.20;46.00
23291;DHT22;11814;44.686;10.842;2023-04-07T12:22:34;18.30;45.50
23291;DHT22;11814;44.686;10.842;2023-04-07T12:25:00;18.40;45.70
23291;DHT22;11814;44.686;10.842;2023-04-07T12:27:27;18.50;45.90
23291;DHT22;11814;44.686;10.842;2023-04-07T12:29:52;18.60;46.10
23291;DHT22;11814;44.686;10.842;2023-04-07T12:32:18;18.60;45.90
23291;DHT22;11814;44.686;10.842;2023-04-07T12:34:44;18.60;46.50
23291;DHT22;11814;44.686;10.842;2023-04-07T12:37:09;18.60;45.40
23291;DHT22;11814;44.686;10.842;2023-04-07T12:39:35;18.40;45.00
23291;DHT22;11814;44.686;10.842;2023-04-07T12:42:01;18.40;45.20
23291;DHT22;11814;44.686;10.842;2023-04-07T12:44:26;18.40;45.20
23291;DHT22;11814;44.686;10.842;2023-04-07T12:46:52;18.40;45.00
23291;DHT22;11814;44.686;10.842;2023-04-07T12:49:18;18.30;45.10
23291;DHT22;11814;44.686;10.842;2023-04-07T12:51:44;18.30;45.10
23291;DHT22;11814;44.686;10.842;2023-04-07T12:54:10;18.30;45.20
23291;DHT22;11814;44.686;10.842;2023-04-07T12:56:36;18.20;46.20
23291;DHT22;11814;44.686;10.842;2023-04-07T12:59:01;18.30;46.30
23291;DHT22;11814;44.686;10.842;2023-04-07T13:01:27;18.30;46.40
23291;DHT22;11814;44.686;10.842;2023-04-07T13:03:53;18.30;46.60
23291;DHT22;11814;44.686;10.842;2023-04-07T13:06:18;18.30;46.60
23291;DHT22;11814;44.686;10.842;2023-04-07T13:08:44;18.30;46.60
23291;DHT22;11814;44.686;10.842;2023-04-07T13:11:10;18.20;46.50
23291;DHT22;11814;44.686;10.842;2023-04-07T13:13:36;18.20;46.80
23291;DHT22;11814;44.686;10.842;2023-04-07T13:16:01;18.20;46.90
23291;DHT22;11814;44.686;10.842;2023-04-07T13:18:27;18.10;46.90
23291;DHT22;11814;44.686;10.842;2023-04-07T13:20:53;18.00;46.70
23291;DHT22;11814;44.686;10.842;2023-04-07T13:23:19;18.00;46.80
23291;DHT22;11814;44.686;10.842;2023-04-07T13:25:44;17.90;46.70
23291;DHT22;11814;44.686;10.842;2023-04-07T13:28:10;17.90;46.90
23291;DHT22;11814;44.686;10.842;2023-04-07T13:30:36;17.80;46.70
23291;DHT22;11814;44.686;10.842;2023-04-07T13:33:02;17.70;46.60
23291;DHT22;11814;44.686;10.842;2023-04-07T13:35:27;17.60;46.70
23291;DHT22;11814;44.686;10.842;2023-04-07T13:37:55;17.50;46.80
23291;DHT22;11814;44.686;10.842;2023-04-07T13:40:21;17.40;47.00
23291;DHT22;11814;44.686;10.842;2023-04-07T13:42:47;17.30;47.00
23291;DHT22;11814;44.686;10.842;2023-04-07T13:45:13;17.20;47.20
23291;DHT22;11814;44.686;10.842;2023-04-07T13:47:38;17.20;47.50
23291;DHT22;11814;44.686;10.842;2023-04-07T13:50:04;17.20;47.80
23291;DHT22;11814;44.686;10.842;2023-04-07T13:52:30;17.10;48.10
23291;DHT22;11814;44.686;10.842;2023-04-07T13:54:59;17.00;48.10
23291;DHT22;11814;44.686;10.842;2023-04-07T13:57:26;17.00;48.20
23291;DHT22;11814;44.686;10.842;2023-04-07T13:59:52;16.90;48.20
23291;DHT22;11814;44.686;10.842;2023-04-07T14:02:18;16.80;48.20
23291;DHT22;11814;44.686;10.842;2023-04-07T14:04:44;16.80;48.10
23291;DHT22;11814;44.686;10.842;2023-04-07T14:07:10;16.80;48.30
23291;DHT22;11814;44.686;10.842;2023-04-07T14:09:36;16.70;48.30
23291;DHT22;11814;44.686;10.842;2023-04-07T14:12:02;16.70;48.30
23291;DHT22;11814;44.686;10.842;2023-04-07T14:14:29;16.70;49.00
23291;DHT22;11814;44.686;10.842;2023-04-07T14:16:55;16.70;48.50
23291;DHT22;11814;44.686;10.842;2023-04-07T14:19:21;16.70;48.70
23291;DHT22;11814;44.686;10.842;2023-04-07T14:21:48;16.70;48.60
23291;DHT22;11814;44.686;10.842;2023-04-07T14:24:14;16.70;48.80
23291;DHT22;11814;44.686;10.842;2023-04-07T14:26:42;16.70;48.90
23291;DHT22;11814;44.686;10.842;2023-04-07T14:29:08;16.70;49.00
23291;DHT22;11814;44.686;10.842;2023-04-07T14:31:34;16.70;49.10
23291;DHT22;11814;44.686;10.842;2023-04-07T14:34:00;16.60;49.30
23291;DHT22;11814;44.686;10.842;2023-04-07T14:36:26;16.60;49.60
23291;DHT22;11814;44.686;10.842;2023-04-07T14:38:51;16.60;49.60
23291;DHT22;11814;44.686;10.842;2023-04-07T14:41:18;16.50;49.50
23291;DHT22;11814;44.686;10.842;2023-04-07T14:43:45;16.50;49.40
23291;DHT22;11814;44.686;10.842;2023-04-07T14:46:12;16.40;49.00
23291;DHT22;11814;44.686;10.842;2023-04-07T14:48:39;16.40;49.10
23291;DHT22;11814;44.686;10.842;2023-04-07T14:51:11;16.40;49.30
23291;DHT22;11814;44.686;10.842;2023-04-07T14:53:39;16.40;49.70
23291;DHT22;11814;44.686;10.842;2023-04-07T14:56:06;16.40;50.10
23291;DHT22;11814;44.686;10.842;2023-04-07T14:58:32;16.40;50.60
23291;DHT22;11814;44.686;10.842;2023-04-07T15:00:58;16.30;50.80
23291;DHT22;11814;44.686;10.842;2023-04-07T15:03:24;16.30;50.80
23291;DHT22;11814;44.686;10.842;2023-04-07T15:05:49;16.30;50.70
23291;DHT22;11814;44.686;10.842;2023-04-07T15:08:15;16.20;50.80
23291;DHT22;11814;44.686;10.842;2023-04-07T15:10:41;16.00;51.40
23291;DHT22;11814;44.686;10.842;2023-04-07T15:13:06;16.00;51.90
23291;DHT22;11814;44.686;10.842;2023-04-07T15:15:32;15.80;52.80
23291;DHT22;11814;44.686;10.842;2023-04-07T15:17:58;15.80;53.60
23291;DHT22;11814;44.686;10.842;2023-04-07T15:20:24;15.70;54.40
23291;DHT22;11814;44.686;10.842;2023-04-07T15:22:50;15.60;55.10
23291;DHT22;11814;44.686;10.842;2023-04-07T15:25:15;15.60;54.90
23291;DHT22;11814;44.686;10.842;2023-04-07T15:27:41;15.50;54.30
23291;DHT22;11814;44.686;10.842;2023-04-07T15:30:07;15.50;54.50
23291;DHT22;11814;44.686;10.842;2023-04-07T15:32:33;15.50;55.00
23291;DHT22;11814;44.686;10.842;2023-04-07T15:34:59;15.50;56.00
23291;DHT22;11814;44.686;10.842;2023-04-07T15:37:25;15.50;55.80
23291;DHT22;11814;44.686;10.842;2023-04-07T15:39:51;15.50;56.00
23291;DHT22;11814;44.686;10.842;2023-04-07T15:42:16;15.50;56.10
23291;DHT22;11814;44.686;10.842;2023-04-07T15:44:42;15.50;56.40
23291;DHT22;11814;44.686;10.842;2023-04-07T15:47:08;15.50;56.80
23291;DHT22;11814;44.686;10.842;2023-04-07T15:49:34;15.50;57.00
23291;DHT22;11814;44.686;10.842;2023-04-07T15:52:04;15.50;57.40
23291;DHT22;11814;44.686;10.842;2023-04-07T15:54:30;15.50;57.70